Time;durP1;ratioP1;P1;durP2;ratioP2;P2;SDS_P1;SDS_P2;PMS_P1;PMS_P2;Temp;Humidity;BMP_temperature;BMP_pressure;BME280_temperature;BME280_humidity;BME280_pressure;Samples;Min_cycle;Max_cycle;Signal;HPM_P1;HPM_P2
2023/12/03 00:00:54;;;;;;;27.70;15.80;;;;;;;-4.67;96.84;99856.27;131320;1297;22648;-80
2023/12/03 00:03:55;;;;;;;26.00;14.60;;;;;;;-4.69;96.87;99854.66;131405;1289;24482;-81
2023/12/03 00:06:55;;;;;;;27.70;15.50;;;;;;;-4.70;96.88;99855.77;131358;1301;22819;-79
2023/12/03 00:09:56;;;;;;;23.40;13.50;;;;;;;-4.73;96.86;99859.51;131545;1299;22620;-82
2023/12/03 00:12:57;;;;;;;27.20;14.80;;;;;;;-4.74;96.78;99867.68;131424;1301;24386;-82
2023/12/03 00:15:57;;;;;;;26.30;15.10;;;;;;;-4.75;96.95;99871.32;131241;1292;22848;-81
2023/12/03 00:18:58;;;;;;;28.20;14.20;;;;;;;-4.73;97.08;99872.83;131202;1293;22562;-81
2023/12/03 00:21:59;;;;;;;27.00;14.50;;;;;;;-4.73;97.08;99869.52;131467;1298;23440;-81
2023/12/03 00:24:59;;;;;;;26.40;14.90;;;;;;;-4.73;97.07;99875.91;131207;1289;23328;-81
2023/12/03 00:27:59;;;;;;;28.60;14.60;;;;;;;-4.72;97.33;99883.98;131126;1291;22629;-81
2023/12/03 00:31:00;;;;;;;24.50;13.80;;;;;;;-4.72;97.19;99887.80;131302;1295;22711;-81
2023/12/03 00:34:02;;;;;;;27.00;14.10;;;;;;;-4.73;97.20;99892.81;131307;1301;24281;-80
2023/12/03 00:37:03;;;;;;;25.00;13.60;;;;;;;-4.73;97.30;99893.51;131408;1299;22583;-83
2023/12/03 00:40:04;;;;;;;25.40;13.30;;;;;;;-4.72;97.25;99901.27;131309;1298;22599;-80
2023/12/03 00:43:05;;;;;;;20.60;12.10;;;;;;;-4.71;97.19;99901.39;131783;1301;22567;-79
2023/12/03 00:46:05;;;;;;;22.20;13.80;;;;;;;-4.70;97.24;99904.45;131512;1292;25539;-82
2023/12/03 00:49:06;;;;;;;;;;;;;;;-4.71;97.16;99908.08;131337;1295;22628;-79
2023/12/03 00:52:06;;;;;;;22.00;12.10;;;;;;;-4.72;97.11;99913.84;131595;1298;22685;-78
2023/12/03 00:55:07;;;;;;;20.90;12.70;;;;;;;-4.73;97.09;99914.90;131566;1299;23445;-77
2023/12/03 00:58:07;;;;;;;23.90;13.60;;;;;;;-4.72;97.25;99915.23;131510;1292;23905;-79
2023/12/03 01:01:08;;;;;;;22.70;13.00;;;;;;;-4.72;96.95;99923.34;131532;1298;23315;-79
2023/12/03 01:04:09;;;;;;;23.60;13.00;;;;;;;-4.71;97.17;99923.98;131404;1299;22611;-81
2023/12/03 01:07:09;;;;;;;20.50;12.50;;;;;;;-4.70;97.21;99935.50;131319;1292;24270;-78
2023/12/03 01:10:10;;;;;;;22.60;12.80;;;;;;;-4.70;97.16;99933.08;131629;1298;22782;-81
2023/12/03 01:13:11;;;;;;;17.70;11.40;;;;;;;-4.70;97.11;99934.64;131741;1298;22620;-80
2023/12/03 01:16:15;;;;;;;23.50;13.30;;;;;;;-4.70;97.20;99941.73;131574;1293;22610;-82
2023/12/03 01:19:16;;;;;;;19.00;12.10;;;;;;;-4.69;97.24;99947.73;131570;1289;24358;-80
2023/12/03 01:22:16;;;;;;;22.70;12.20;;;;;;;-4.68;97.27;99952.33;131546;1298;23147;-79
2023/12/03 01:25:17;;;;;;;20.50;12.00;;;;;;;-4.68;97.30;99958.71;131487;1301;25389;-80
2023/12/03 01:28:20;;;;;;;21.30;12.00;;;;;;;-4.66;97.38;99962.40;131579;1291;22682;-80
2023/12/03 01:31:20;;;;;;;21.30;11.90;;;;;;;-4.65;97.45;99960.45;131728;1291;22768;-79
2023/12/03 01:34:21;;;;;;;20.20;12.30;;;;;;;-4.64;97.26;99957.30;131560;1298;22607;-78
2023/12/03 01:37:22;;;;;;;17.30;10.70;;;;;;;-4.63;97.52;99962.45;131427;1298;22588;-81
2023/12/03 01:40:22;;;;;;;19.80;11.30;;;;;;;-4.61;97.36;99960.60;131483;1297;27572;-79
2023/12/03 01:43:23;;;;;;;17.70;10.40;;;;;;;-4.61;97.36;99957.98;131534;1297;22617;-80
2023/12/03 01:46:23;;;;;;;19.10;11.70;;;;;;;-4.60;97.56;99959.83;131420;1299;22555;-80
2023/12/03 01:49:24;;;;;;;17.20;10.90;;;;;;;-4.58;97.70;99965.82;131195;1289;22730;-79
2023/12/03 01:52:24;;;;;;;;;;;;;;;-4.57;97.57;99961.77;131244;1291;22579;-81
2023/12/03 01:55:25;;;;;;;18.00;10.70;;;;;;;-4.57;97.61;99961.43;131247;1298;22590;-80
2023/12/03 01:58:26;;;;;;;20.80;11.40;;;;;;;-4.57;97.43;99965.24;131288;1298;22574;-79
2023/12/03 02:01:26;;;;;;;18.80;11.70;;;;;;;-4.58;97.52;99965.08;131457;1298;22813;-78
2023/12/03 02:04:27;;;;;;;19.60;11.40;;;;;;;-4.56;97.60;99968.98;131504;1298;22636;-82
2023/12/03 02:07:27;;;;;;;20.90;12.00;;;;;;;-4.56;97.55;99974.35;131319;1298;22631;-79
2023/12/03 02:10:28;;;;;;;18.20;10.70;;;;;;;-4.55;97.66;99977.23;131338;1299;22568;-82
2023/12/03 02:13:32;;;;;;;17.40;11.20;;;;;;;-4.54;97.65;99983.39;131303;1298;22769;-78
2023/12/03 02:16:35;;;;;;;20.40;12.10;;;;;;;-4.52;97.77;99981.92;131164;1299;158788;-80
2023/12/03 02:19:35;;;;;;;20.30;11.80;;;;;;;-4.51;97.66;99985.48;131327;1297;23372;-80
2023/12/03 02:23:02;;;;;;;21.90;13.50;;;;;;;-4.49;97.75;99988.52;131545;1289;24277;-81
2023/12/03 02:26:03;;;;;;;19.10;11.80;;;;;;;-4.48;97.86;99992.42;131454;1299;24486;-81
2023/12/03 02:29:04;;;;;;;18.30;11.30;;;;;;;-4.45;97.90;99999.20;131446;1298;22665;-79
2023/12/03 02:32:05;;;;;;;20.70;12.90;;;;;;;-4.43;97.93;100002.89;131408;1289;25564;-80
2023/12/03 02:35:06;;;;;;;19.50;11.60;;;;;;;-4.41;97.92;100005.25;131647;1293;22631;-82
2023/12/03 02:38:06;;;;;;;21.10;12.60;;;;;;;-4.41;97.80;100006.94;131742;1298;22573;-81
2023/12/03 02:41:07;;;;;;;20.20;11.80;;;;;;;-4.40;98.10;100006.89;131506;1291;23953;-81
2023/12/03 02:44:07;;;;;;;;;;;;;;;-4.39;97.86;100012.52;131483;1299;22652;-82
2023/12/03 02:47:08;;;;;;;18.10;11.10;;;;;;;-4.38;98.04;100013.00;131603;1298;22591;-81
2023/12/03 02:50:09;;;;;;;18.20;11.10;;;;;;;-4.39;97.95;100015.48;131459;1298;22603;-83
2023/12/03 02:53:09;;;;;;;17.40;10.40;;;;;;;-4.38;98.14;100021.30;131613;1298;23930;-81
2023/12/03 02:56:12;;;;;;;17.60;11.00;;;;;;;-4.37;98.16;100026.27;131623;1297;22668;-80
2023/12/03 02:59:12;;;;;;;20.40;10.90;;;;;;;-4.37;98.30;100031.77;131536;1298;24256;-81
2023/12/03 03:02:13;;;;;;;20.60;11.90;;;;;;;-4.36;98.15;100032.95;131555;1289;25407;-79
2023/12/03 03:05:14;;;;;;;19.90;10.70;;;;;;;-4.34;98.15;100035.46;131482;1289;22815;-82
2023/12/03 03:08:14;;;;;;;21.90;12.70;;;;;;;-4.35;98.25;100035.82;131471;1298;22640;-79
2023/12/03 03:11:14;;;;;;;19.50;11.30;;;;;;;-4.33;98.42;100041.77;131488;1298;25303;-80
2023/12/03 03:14:15;;;;;;;19.20;11.60;;;;;;;-4.32;98.41;100040.52;131555;1298;23211;-81
2023/12/03 03:17:15;;;;;;;18.70;11.90;;;;;;;-4.31;98.33;100041.67;131237;1298;22594;-81
2023/12/03 03:20:21;;;;;;;20.30;12.50;;;;;;;-4.31;98.34;100041.52;131370;1298;22596;-81
2023/12/03 03:23:22;;;;;;;22.50;12.80;;;;;;;-4.31;98.50;100038.59;131580;1293;22587;-80
2023/12/03 03:26:22;;;;;;;20.00;12.80;;;;;;;-4.31;98.38;100043.06;131595;1298;22713;-81
2023/12/03 03:29:24;;;;;;;21.50;11.90;;;;;;;-4.29;98.51;100050.41;131500;1292;24243;-83
2023/12/03 03:32:25;;;;;;;20.50;10.40;;;;;;;-4.29;98.43;100052.63;131542;1291;24387;-81
2023/12/03 03:35:25;;;;;;;22.60;11.70;;;;;;;-4.28;98.57;100054.66;131715;1297;25397;-81
2023/12/03 03:38:26;;;;;;;14.00;8.60;;;;;;;-4.27;98.62;100058.41;131507;1289;25487;-80
2023/12/03 03:41:26;;;;;;;19.00;12.00;;;;;;;-4.26;98.63;100064.25;131537;1294;22562;-79
2023/12/03 03:44:27;;;;;;;21.60;11.40;;;;;;;-4.25;98.49;100063.54;131493;1298;23015;-80
2023/12/03 03:47:28;;;;;;;21.40;12.00;;;;;;;-4.24;98.51;100065.36;131531;1298;25421;-81
2023/12/03 03:50:28;;;;;;;;;;;;;;;-4.23;98.65;100073.45;131695;1293;25487;-80
2023/12/03 03:53:28;;;;;;;21.50;11.80;;;;;;;-4.23;98.60;100076.00;131549;1289;22553;-81
2023/12/03 03:56:29;;;;;;;21.90;13.30;;;;;;;-4.21;98.66;100076.63;131590;1298;22601;-80
2023/12/03 03:59:29;;;;;;;22.90;12.80;;;;;;;-4.20;98.84;100081.02;131389;1298;25438;-81
2023/12/03 04:02:30;;;;;;;22.40;13.60;;;;;;;-4.19;98.71;100080.16;131429;1298;22629;-80
2023/12/03 04:05:30;;;;;;;22.10;13.40;;;;;;;-4.18;98.72;100081.33;131509;1294;24378;-79
2023/12/03 04:08:31;;;;;;;23.80;13.80;;;;;;;-4.17;98.72;100081.95;131324;1301;23900;-79
2023/12/03 04:11:32;;;;;;;21.30;12.10;;;;;;;-4.17;98.83;100082.96;131163;1297;25084;-80
2023/12/03 04:14:32;;;;;;;24.50;13.00;;;;;;;-4.16;98.99;100085.69;131354;1292;22917;-79
2023/12/03 04:17:33;;;;;;;25.10;14.10;;;;;;;-4.15;99.00;100090.83;131326;1289;24907;-80
2023/12/03 04:20:33;;;;;;;21.30;12.90;;;;;;;-4.15;99.01;100100.13;131347;1290;24755;-80
2023/12/03 04:23:34;;;;;;;21.80;12.70;;;;;;;-4.13;99.07;100103.70;131265;1298;22589;-80
2023/12/03 04:26:35;;;;;;;20.60;12.00;;;;;;;-4.12;99.01;100104.34;131581;1301;22490;-81
2023/12/03 04:29:36;;;;;;;23.00;13.00;;;;;;;-4.11;99.18;100108.58;131470;1298;22662;-79
2023/12/03 04:32:37;;;;;;;22.30;13.20;;;;;;;-4.09;99.23;100113.16;131486;1288;22563;-78
2023/12/03 04:35:37;;;;;;;22.50;13.40;;;;;;;-4.08;99.14;100114.52;131398;1291;23205;-81
2023/12/03 04:38:38;;;;;;;25.60;13.50;;;;;;;-4.05;99.20;100119.91;131456;1297;25316;-80
2023/12/03 04:41:38;;;;;;;23.10;12.90;;;;;;;-4.02;99.38;100123.27;131346;1296;22615;-81
2023/12/03 04:44:39;;;;;;;22.70;12.80;;;;;;;-4.00;99.13;100128.83;131527;1298;22602;-81
2023/12/03 04:47:39;;;;;;;22.60;13.60;;;;;;;-4.00;99.26;100130.20;131469;1296;22563;-81
2023/12/03 04:50:40;;;;;;;26.30;13.70;;;;;;;-3.99;99.41;100132.56;131167;1298;22674;-83
2023/12/03 04:53:41;;;;;;;24.40;14.60;;;;;;;-3.97;99.33;100137.66;131526;1295;22556;-81
2023/12/03 04:56:42;;;;;;;23.60;13.50;;;;;;;-3.97;99.15;100142.66;131612;1298;22650;-79
2023/12/03 04:59:42;;;;;;;24.80;14.50;;;;;;;-3.95;99.20;100146.89;131289;1291;22576;-81
2023/12/03 05:02:43;;;;;;;26.40;14.00;;;;;;;-3.94;99.34;100146.33;131394;1294;23037;-82
2023/12/03 05:05:44;;;;;;;24.70;13.80;;;;;;;-3.94;99.28;100152.89;131614;1298;24871;-81
2023/12/03 05:08:44;;;;;;;25.90;14.50;;;;;;;-3.94;99.40;100156.34;131509;1298;25472;-82
2023/12/03 05:11:45;;;;;;;26.20;15.30;;;;;;;-3.94;99.18;100154.09;131666;1298;22664;-81
2023/12/03 05:14:45;;;;;;;28.70;15.10;;;;;;;-3.94;99.27;100158.06;131514;1289;22620;-79
2023/12/03 05:17:46;;;;;;;24.60;13.30;;;;;;;-3.92;99.41;100162.31;131481;1298;22596;-81
2023/12/03 05:20:46;;;;;;;27.70;14.50;;;;;;;-3.91;99.49;100168.84;131465;1298;22609;-81
2023/12/03 05:23:47;;;;;;;27.80;14.90;;;;;;;-3.90;99.40;100167.91;131285;1298;22846;-81
2023/12/03 05:26:47;;;;;;;29.20;15.70;;;;;;;-3.89;99.39;100179.46;131519;1285;22556;-81
2023/12/03 05:29:48;;;;;;;26.20;14.00;;;;;;;-3.89;99.27;100178.38;131511;1298;23318;-81
2023/12/03 05:32:49;;;;;;;25.50;14.00;;;;;;;-3.88;99.36;100182.34;131390;1297;25234;-81
2023/12/03 05:35:50;;;;;;;26.10;13.80;;;;;;;-3.88;99.30;100181.98;131607;1298;25405;-82
2023/12/03 05:38:51;;;;;;;25.90;13.80;;;;;;;-3.88;99.42;100187.33;131261;1298;22578;-81
2023/12/03 05:41:52;;;;;;;25.70;13.70;;;;;;;-3.87;99.20;100191.62;131453;1298;23036;-80
2023/12/03 05:44:52;;;;;;;25.90;14.30;;;;;;;-3.87;99.31;100195.41;131452;1298;24451;-79
2023/12/03 05:47:53;;;;;;;23.90;13.60;;;;;;;-3.87;99.26;100195.21;131432;1298;24283;-80
2023/12/03 05:50:53;;;;;;;27.00;14.30;;;;;;;-3.87;99.49;100205.42;131537;1298;25081;-79
2023/12/03 05:53:55;;;;;;;24.60;13.40;;;;;;;-3.87;99.18;100208.18;131408;1295;26729;-79
2023/12/03 05:56:55;;;;;;;24.00;13.80;;;;;;;-3.86;99.26;100210.73;131428;1298;22717;-81
2023/12/03 05:59:56;;;;;;;23.80;12.80;;;;;;;-3.84;99.30;100215.66;131496;1298;24393;-81
2023/12/03 06:02:59;;;;;;;;;;;;;;;-3.84;99.48;100221.35;131363;1291;24324;-81
2023/12/03 06:05:59;;;;;;;24.90;13.10;;;;;;;-3.83;99.55;100222.55;131415;1298;23905;-80
2023/12/03 06:09:00;;;;;;;24.20;12.70;;;;;;;-3.83;99.39;100226.84;131487;1298;25281;-83
2023/12/03 06:12:00;;;;;;;24.90;14.40;;;;;;;-3.84;99.40;100230.16;131389;1289;22596;-79
2023/12/03 06:15:03;;;;;;;24.70;14.40;;;;;;;-3.83;99.44;100231.17;131344;1294;23260;-81
2023/12/03 06:18:04;;;;;;;24.70;13.50;;;;;;;-3.82;99.37;100236.01;131331;1291;22609;-79
2023/12/03 06:21:04;;;;;;;23.90;13.20;;;;;;;-3.82;99.36;100237.54;131353;1298;25342;-80
2023/12/03 06:24:05;;;;;;;27.30;13.70;;;;;;;-3.82;99.42;100240.13;131510;1291;24269;-79
2023/12/03 06:27:06;;;;;;;26.70;12.90;;;;;;;-3.82;99.22;100241.69;131513;1294;24314;-81
2023/12/03 06:30:08;;;;;;;21.20;12.90;;;;;;;-3.82;99.25;100250.50;131376;1289;23332;-78
2023/12/03 06:33:08;;;;;;;26.00;13.90;;;;;;;-3.82;99.19;100264.14;131473;1298;22572;-79
2023/12/03 06:36:09;;;;;;;27.80;13.40;;;;;;;-3.81;99.33;100264.27;131347;1298;22592;-80
2023/12/03 06:39:10;;;;;;;26.40;14.60;;;;;;;-3.82;99.18;100271.79;131264;1291;24409;-80
2023/12/03 06:42:10;;;;;;;27.40;14.90;;;;;;;-3.84;99.17;100271.48;131313;1294;22690;-82
2023/12/03 06:45:13;;;;;;;25.70;14.60;;;;;;;-3.83;99.30;100278.54;131067;1291;22651;-81
2023/12/03 06:48:14;;;;;;;26.60;14.00;;;;;;;-3.81;99.43;100276.04;131223;1290;23930;-80
2023/12/03 06:51:14;;;;;;;21.70;13.00;;;;;;;-3.80;99.33;100288.29;131302;1298;22583;-80
2023/12/03 06:54:14;;;;;;;23.30;14.50;;;;;;;-3.80;99.25;100292.24;131343;1298;22670;-79
2023/12/03 06:57:15;;;;;;;23.60;13.10;;;;;;;-3.79;99.18;100302.25;131325;1298;22594;-81
2023/12/03 07:00:16;;;;;;;23.50;14.30;;;;;;;-3.79;99.43;100305.84;131343;1294;22690;-80
2023/12/03 07:03:16;;;;;;;;;;;;;;;-3.77;99.35;100309.23;131443;1291;22538;-80
2023/12/03 07:06:17;;;;;;;26.00;14.20;;;;;;;-3.75;99.31;100314.33;131426;1298;25200;-81
2023/12/03 07:09:17;;;;;;;23.50;14.00;;;;;;;-3.75;99.32;100314.45;131422;1298;22559;-80
2023/12/03 07:12:18;;;;;;;23.50;13.30;;;;;;;-3.73;99.41;100317.31;131330;1295;22589;-80
2023/12/03 07:15:19;;;;;;;31.20;16.30;;;;;;;-3.71;99.27;100324.67;131496;1290;22638;-81
2023/12/03 07:18:19;;;;;;;;;;;;;;;-3.70;99.33;100335.14;131224;1298;22574;-81
2023/12/03 07:21:20;;;;;;;25.30;14.70;;;;;;;-3.68;99.46;100339.06;131346;1300;22594;-82
2023/12/03 07:24:21;;;;;;;26.30;15.20;;;;;;;-3.67;99.47;100340.38;131458;1297;22594;-80
2023/12/03 07:27:22;;;;;;;22.80;14.00;;;;;;;-3.64;99.37;100347.64;131319;1295;24001;-81
2023/12/03 07:30:24;;;;;;;26.60;13.70;;;;;;;-3.60;99.54;100354.41;131358;1291;25407;-81
2023/12/03 07:33:25;;;;;;;25.00;14.60;;;;;;;-3.56;99.53;100362.91;131356;1291;22672;-82
2023/12/03 07:36:26;;;;;;;26.40;14.40;;;;;;;-3.55;99.17;100370.27;131427;1289;22593;-81
2023/12/03 07:39:26;;;;;;;;;;;;;;;-3.52;99.32;100371.67;131469;1298;24336;-82
2023/12/03 07:42:27;;;;;;;25.20;14.20;;;;;;;-3.49;99.08;100374.67;131504;1298;22640;-80
2023/12/03 07:45:27;;;;;;;24.30;13.20;;;;;;;-3.47;99.11;100379.56;131487;1294;22697;-82
2023/12/03 07:48:28;;;;;;;27.50;13.70;;;;;;;-3.44;98.96;100380.30;131485;1297;24821;-80
2023/12/03 07:51:29;;;;;;;23.20;12.80;;;;;;;-3.41;98.89;100382.27;131341;1298;22573;-82
2023/12/03 07:54:29;;;;;;;21.60;12.80;;;;;;;-3.40;98.64;100385.47;131369;1295;22612;-82
2023/12/03 07:57:30;;;;;;;22.60;13.00;;;;;;;-3.36;98.69;100390.82;131219;1298;22559;-80
2023/12/03 08:00:31;;;;;;;21.50;12.30;;;;;;;-3.29;98.49;100396.92;131434;1292;25514;-80
2023/12/03 08:03:31;;;;;;;19.30;11.30;;;;;;;-3.24;98.43;100397.52;131327;1292;25405;-80
2023/12/03 08:06:32;;;;;;;22.70;12.30;;;;;;;-3.19;97.80;100396.46;131535;1289;22576;-81
2023/12/03 08:09:32;;;;;;;21.10;12.10;;;;;;;-3.14;97.61;100403.81;131418;1290;22731;-80
2023/12/03 08:12:33;;;;;;;17.90;10.00;;;;;;;-3.07;97.49;100407.46;131552;1292;24867;-80
2023/12/03 08:15:33;;;;;;;19.70;11.60;;;;;;;-3.00;97.17;100406.25;131458;1291;22594;-81
2023/12/03 08:18:34;;;;;;;18.40;11.20;;;;;;;-2.93;96.78;100410.27;131665;1289;22588;-79
2023/12/03 08:21:36;;;;;;;19.90;11.10;;;;;;;-2.86;96.98;100417.53;131514;1294;23466;-80
2023/12/03 08:24:37;;;;;;;20.20;11.70;;;;;;;-2.80;96.79;100423.99;131499;1291;22557;-80
2023/12/03 08:27:37;;;;;;;16.40;10.10;;;;;;;-2.76;96.47;100430.23;131586;1282;22618;-79
2023/12/03 08:30:39;;;;;;;19.40;10.50;;;;;;;-2.73;95.76;100436.48;131527;1294;22656;-80
2023/12/03 08:33:40;;;;;;;20.00;10.50;;;;;;;-2.71;95.51;100441.90;131570;1291;22568;-82
2023/12/03 08:36:41;;;;;;;17.30;10.60;;;;;;;-2.62;95.61;100447.39;131291;1290;22564;-81
2023/12/03 08:39:42;;;;;;;;;;;;;;;-2.53;95.87;100448.52;131526;1291;22653;-81
2023/12/03 08:42:44;;;;;;;19.10;11.20;;;;;;;-2.49;95.27;100453.48;131572;1297;22795;-82
2023/12/03 08:45:44;;;;;;;15.40;9.10;;;;;;;-2.48;93.98;100456.92;131363;1298;24088;-83
2023/12/03 08:48:45;;;;;;;18.20;11.30;;;;;;;-2.51;93.77;100457.21;131540;1298;22734;-81
2023/12/03 08:51:45;;;;;;;21.00;11.60;;;;;;;-2.53;93.82;100466.34;131364;1294;22595;-80
2023/12/03 08:54:46;;;;;;;20.20;12.60;;;;;;;-2.50;94.21;100470.14;131529;1300;25421;-82
2023/12/03 08:57:47;;;;;;;;;;;;;;;-2.47;94.03;100472.43;131470;1298;22531;-79
2023/12/03 09:00:48;;;;;;;21.00;12.20;;;;;;;-2.43;94.17;100473.16;131496;1294;23668;-81
2023/12/03 09:03:49;;;;;;;22.90;12.10;;;;;;;-2.44;93.98;100476.83;131528;1298;22591;-79
2023/12/03 09:06:50;;;;;;;23.40;14.30;;;;;;;-2.44;94.07;100483.91;131410;1292;24243;-82
2023/12/03 09:09:50;;;;;;;21.10;11.30;;;;;;;-2.43;93.59;100488.23;131666;1294;25300;-78
2023/12/03 09:12:52;;;;;;;22.30;11.30;;;;;;;-2.48;93.34;100498.50;131608;1298;22569;-78
2023/12/03 09:15:55;;;;;;;22.10;11.20;;;;;;;-2.50;93.51;100506.02;131587;1291;22564;-79
2023/12/03 09:18:59;;;;;;;20.30;11.10;;;;;;;-2.46;93.20;100506.52;131557;1298;22573;-79
2023/12/03 09:22:00;;;;;;;20.80;11.00;;;;;;;-2.43;93.17;100504.30;131499;1298;22714;-77
2023/12/03 09:25:03;;;;;;;21.20;12.50;;;;;;;-2.35;93.19;100500.46;131440;1295;22798;-79
2023/12/03 09:28:05;;;;;;;19.40;11.00;;;;;;;-2.30;92.62;100497.79;131408;1298;22562;-81
2023/12/03 09:31:06;;;;;;;21.80;12.00;;;;;;;-2.23;92.93;100504.73;131335;1298;22588;-80
2023/12/03 09:34:07;;;;;;;25.50;14.50;;;;;;;-2.15;92.75;100506.21;131405;1293;22612;-79
2023/12/03 09:37:08;;;;;;;20.80;12.60;;;;;;;-2.09;92.28;100512.52;131334;1293;22589;-78
2023/12/03 09:40:10;;;;;;;23.00;12.90;;;;;;;-2.02;92.44;100515.48;131419;1282;24241;-82
2023/12/03 09:43:12;;;;;;;27.20;14.00;;;;;;;-2.00;91.76;100520.55;131420;1298;26613;-81
2023/12/03 09:46:13;;;;;;;22.60;12.80;;;;;;;-1.95;91.68;100523.29;131349;1298;22562;-78
2023/12/03 09:49:16;;;;;;;;;;;;;;;-1.90;91.08;100525.45;131328;1298;22531;-80
2023/12/03 09:52:19;;;;;;;20.60;11.20;;;;;;;-1.88;91.10;100528.44;131325;1298;22635;-79
2023/12/03 09:55:23;;;;;;;18.70;11.00;;;;;;;-1.88;90.66;100530.37;131316;1294;22637;-79
2023/12/03 09:58:24;;;;;;;23.10;11.90;;;;;;;-1.86;90.65;100526.95;131149;1301;22680;-78
2023/12/03 10:01:26;;;;;;;19.20;10.90;;;;;;;-1.84;90.54;100530.51;131029;1295;22626;-78
2023/12/03 10:04:27;;;;;;;20.00;11.40;;;;;;;-1.86;89.91;100530.59;130510;1294;22540;-83
2023/12/03 10:07:30;;;;;;;20.90;11.70;;;;;;;-1.83;89.84;100533.94;131294;1291;22558;-80
2023/12/03 10:10:34;;;;;;;21.20;11.70;;;;;;;-1.78;89.85;100535.59;131332;1291;22701;-79
2023/12/03 10:13:37;;;;;;;19.60;11.00;;;;;;;-1.74;89.90;100537.80;131365;1293;22783;-78
2023/12/03 10:16:38;;;;;;;19.30;11.30;;;;;;;-1.64;90.15;100534.34;131186;1297;26608;-78
2023/12/03 10:19:39;;;;;;;19.90;11.40;;;;;;;-1.50;89.56;100532.95;131415;1298;23307;-82
2023/12/03 10:22:40;;;;;;;20.20;10.90;;;;;;;-1.23;89.71;100529.59;131329;1294;22631;-78
2023/12/03 10:25:41;;;;;;;18.30;10.60;;;;;;;-0.95;88.41;100524.61;131388;1298;24693;-79
2023/12/03 10:28:44;;;;;;;16.60;10.20;;;;;;;-0.82;87.48;100523.40;131447;1297;23424;-81
2023/12/03 10:31:49;;;;;;;19.00;10.30;;;;;;;-0.65;87.38;100528.00;131510;1297;24301;-80
2023/12/03 10:34:55;;;;;;;18.20;10.00;;;;;;;-0.46;86.98;100527.14;132866;1298;22604;-79
2023/12/03 10:37:55;;;;;;;18.10;10.30;;;;;;;-0.33;86.43;100532.48;131410;1298;22593;-79
2023/12/03 10:40:59;;;;;;;18.80;11.80;;;;;;;-0.25;86.07;100537.80;131411;1298;22668;-80
2023/12/03 10:43:59;;;;;;;17.70;11.20;;;;;;;-0.08;85.92;100538.04;131428;1298;23075;-78
2023/12/03 10:47:00;;;;;;;19.40;11.10;;;;;;;0.10;85.91;100541.17;131144;1301;22771;-81
2023/12/03 10:50:03;;;;;;;21.80;12.50;;;;;;;0.09;84.27;100551.27;130947;1298;22562;-82
2023/12/03 10:53:04;;;;;;;21.50;11.60;;;;;;;0.14;85.04;100554.33;131463;1298;23943;-80
2023/12/03 10:56:06;;;;;;;19.80;10.20;;;;;;;0.24;84.64;100557.52;131271;1298;24364;-79
2023/12/03 10:59:21;;;;;;;16.30;10.20;;;;;;;0.24;82.88;100559.48;131565;1301;22565;-80
2023/12/03 11:02:25;;;;;;;18.30;10.60;;;;;;;0.19;83.42;100564.30;131319;1298;23211;-80
2023/12/03 11:05:46;;;;;;;19.20;10.60;;;;;;;0.20;83.05;100568.53;131487;1294;22587;-81
2023/12/03 11:08:48;;;;;;;16.60;10.40;;;;;;;0.25;82.70;100567.45;131494;1294;22565;-80
2023/12/03 11:11:50;;;;;;;15.20;9.80;;;;;;;0.20;82.31;100570.35;131490;1294;22594;-80
2023/12/03 11:14:54;;;;;;;16.30;9.60;;;;;;;0.14;81.92;100571.73;131457;1289;25287;-82
2023/12/03 11:17:56;;;;;;;17.70;9.70;;;;;;;0.11;81.69;100576.58;131564;1298;22563;-80
2023/12/03 11:21:09;;;;;;;17.50;9.60;;;;;;;0.06;81.96;100579.98;131609;1298;22619;-81
2023/12/03 11:24:43;;;;;;;14.90;9.40;;;;;;;0.09;82.13;100584.85;131654;1289;23035;-80
2023/12/03 11:27:50;;;;;;;26.10;14.80;;;;;;;0.22;82.26;100584.09;131474;1298;25329;-80
2023/12/03 11:30:55;;;;;;;19.10;10.60;;;;;;;0.35;81.53;100586.67;130918;1298;22679;-82
2023/12/03 11:34:00;;;;;;;16.90;10.20;;;;;;;0.29;80.92;100586.48;131304;1301;22578;-80
2023/12/03 11:37:01;;;;;;;20.90;10.80;;;;;;;0.27;80.99;100583.98;130803;1292;24588;-81
2023/12/03 11:40:09;;;;;;;16.30;9.90;;;;;;;0.29;80.72;100588.58;131431;1291;25294;-81
2023/12/03 11:43:32;;;;;;;17.20;10.10;;;;;;;0.08;80.41;100581.95;131465;1292;22562;-82
2023/12/03 11:47:05;;;;;;;15.60;9.60;;;;;;;-0.14;80.86;100581.64;131572;1291;23550;-81
2023/12/03 11:50:24;;;;;;;19.50;10.00;;;;;;;-0.29;80.47;100579.92;130586;1289;22594;-81
2023/12/03 11:54:12;;;;;;;;;;;;;;;;;;;;;
2023/12/03 11:57:26;;;;;;;16.30;9.70;;;;;;;-0.27;80.88;100581.52;130703;1294;22563;-81
2023/12/03 12:00:49;;;;;;;17.20;10.00;;;;;;;-0.37;80.64;100580.52;130509;1294;23291;-83
2023/12/03 12:04:08;;;;;;;15.50;9.60;;;;;;;-0.45;80.92;100583.92;130335;1301;22601;-79
2023/12/03 12:07:16;;;;;;;17.70;10.60;;;;;;;-0.58;80.60;100595.25;130331;1297;22573;-81
2023/12/03 12:10:41;;;;;;;20.00;11.00;;;;;;;-0.72;80.51;100599.27;129821;1295;24307;-79
2023/12/03 12:13:45;;;;;;;17.80;10.50;;;;;;;-0.85;80.98;100595.13;130632;1294;23590;-80
2023/12/03 12:18:00;;;;;;;18.50;11.10;;;;;;;-0.95;81.04;100597.07;130258;1301;24759;-81
2023/12/03 12:20:39;;;;;;;16.60;10.30;;;;;;;-1.07;80.93;100598.05;130809;1297;22589;-79
2023/12/03 12:23:46;;;;;;;20.30;10.50;;;;;;;-1.27;80.77;100599.41;129767;1289;25264;-79
2023/12/03 12:27:10;;;;;;;17.80;9.40;;;;;;;-1.47;80.15;100601.29;130558;1301;22587;-78
2023/12/03 12:30:41;;;;;;;14.00;8.60;;;;;;;-1.70;79.60;100604.03;130334;1297;22603;-79
2023/12/03 12:34:35;;;;;;;18.70;10.20;;;;;;;-1.91;80.04;100605.29;130178;1297;22574;-78
2023/12/03 12:37:46;;;;;;;18.30;10.90;;;;;;;-2.06;80.64;100611.20;129980;1301;23276;-81
2023/12/03 12:40:53;;;;;;;;;;;;;;;-2.11;80.99;100613.69;130813;1295;22564;-81
2023/12/03 12:43:59;;;;;;;18.30;10.90;;;;;;;-2.11;81.44;100617.84;130892;1298;22691;-79
2023/12/03 12:47:00;;;;;;;18.50;11.10;;;;;;;-2.07;81.89;100618.50;130814;1294;22624;-79
2023/12/03 12:50:01;;;;;;;21.30;12.20;;;;;;;-2.02;82.24;100621.73;130791;1297;22565;-80
2023/12/03 12:53:03;;;;;;;21.30;11.70;;;;;;;-2.01;82.28;100624.96;130993;1301;22529;-79
2023/12/03 12:56:04;;;;;;;26.50;13.20;;;;;;;-1.99;82.47;100625.26;131005;1297;24257;-78
2023/12/03 12:59:06;;;;;;;22.50;12.00;;;;;;;-1.95;82.62;100626.62;131133;1298;22583;-79
2023/12/03 13:02:08;;;;;;;24.00;12.70;;;;;;;-1.94;82.71;100626.39;130983;1303;22565;-80
2023/12/03 13:05:11;;;;;;;23.90;13.20;;;;;;;-1.93;82.91;100625.45;131123;1294;22589;-78
2023/12/03 13:08:11;;;;;;;23.90;12.90;;;;;;;-1.89;83.11;100624.39;131207;1290;23464;-83
2023/12/03 13:11:13;;;;;;;23.10;13.40;;;;;;;-1.87;82.92;100615.48;131540;1295;22561;-79
2023/12/03 13:14:16;;;;;;;20.10;11.20;;;;;;;-1.89;82.81;100616.07;131442;1295;22643;-80
2023/12/03 13:17:16;;;;;;;22.00;12.10;;;;;;;-1.95;82.24;100615.85;131331;1298;22601;-80
2023/12/03 13:20:17;;;;;;;20.80;11.60;;;;;;;-1.98;82.44;100621.90;131355;1292;23180;-79
2023/12/03 13:23:18;;;;;;;23.20;13.20;;;;;;;-2.01;82.03;100622.40;131548;1293;22584;-79
2023/12/03 13:26:18;;;;;;;35.70;16.60;;;;;;;-2.03;82.55;100628.38;131330;1294;25443;-80
2023/12/03 13:29:19;;;;;;;45.60;20.90;;;;;;;-2.02;82.72;100626.25;131347;1303;25565;-80
2023/12/03 13:32:20;;;;;;;38.70;19.60;;;;;;;-2.02;82.42;100621.94;131447;1295;23044;-80
2023/12/03 13:35:21;;;;;;;35.70;17.00;;;;;;;-2.04;82.46;100623.76;131362;1299;22572;-79
2023/12/03 13:38:21;;;;;;;;;;;;;;;-2.06;82.40;100624.72;131469;1294;22592;-78
2023/12/03 13:41:26;;;;;;;45.60;19.80;;;;;;;-2.09;82.47;100627.25;131439;1299;22590;-80
2023/12/03 13:44:27;;;;;;;54.90;23.30;;;;;;;-2.12;82.59;100625.88;131516;1298;22598;-79
2023/12/03 13:47:31;;;;;;;45.40;20.10;;;;;;;-2.18;82.36;100631.67;131250;1299;22563;-80
2023/12/03 13:50:37;;;;;;;43.10;19.00;;;;;;;-2.24;82.60;100636.66;131564;1299;23477;-82